createdAt,value
2023-03-27T00:07:34.636Z,4
2023-03-27T00:36:34.554Z,6
2023-03-27T01:05:27.961Z,7
2023-03-27T01:34:22.862Z,10
2023-03-27T02:03:19.340Z,10
2023-03-27T02:32:09.323Z,11
2023-03-27T03:01:10.556Z,13
2023-03-27T03:30:16.483Z,18
2023-03-27T03:58:39.486Z,24
2023-03-27T04:27:36.974Z,22
2023-03-27T04:56:40.805Z,18
2023-03-27T05:25:37.696Z,11
2023-03-27T05:54:24.012Z,7
2023-03-27T06:23:10.320Z,4
2023-03-27T06:52:08.749Z,4
2023-03-27T07:21:06.481Z,8
2023-03-27T07:50:01.069Z,5
2023-03-27T08:19:00.245Z,6
2023-03-27T08:48:03.975Z,5
2023-03-27T09:17:07.666Z,4
2023-03-27T09:46:17.565Z,4
2023-03-27T10:14:32.276Z,4
2023-03-27T10:43:27.140Z,4
2023-03-27T11:12:26.164Z,4
2023-03-27T11:41:09.880Z,4
2023-03-27T12:10:01.908Z,4
2023-03-27T12:38:26.740Z,5
2023-03-27T13:07:03.216Z,4
2023-03-27T13:35:38.023Z,5
2023-03-27T14:04:29.142Z,4
2023-03-27T14:33:32.225Z,4
2023-03-27T15:02:17.532Z,8
2023-03-27T15:30:43.901Z,6
2023-03-27T15:58:55.430Z,4
2023-03-27T16:27:15.290Z,4
2023-03-27T16:55:37.156Z,4
2023-03-27T17:23:46.903Z,5
2023-03-27T17:52:01.591Z,5
2023-03-27T18:20:20.634Z,4
2023-03-27T18:49:17.800Z,8
2023-03-27T19:17:27.539Z,7
2023-03-27T19:46:16.043Z,5
2023-03-27T20:14:35.610Z,5
2023-03-27T20:43:33.343Z,10
2023-03-27T21:12:34.073Z,7
2023-03-27T21:41:29.839Z,13
2023-03-27T22:10:23.151Z,9
2023-03-27T22:39:23.516Z,10
2023-03-27T23:08:13.177Z,10
2023-03-27T23:37:07.834Z,10
